createdAt,value
2019-04-14T00:01:36.959Z,55.97
2019-04-14T00:04:18.729Z,52.60
2019-04-14T00:06:51.182Z,57.07
2019-04-14T00:09:23.220Z,53.27
2019-04-14T00:11:56.945Z,51.47
2019-04-14T00:14:29.390Z,50.23
2019-04-14T00:17:02.134Z,53.50
2019-04-14T00:19:34.888Z,52.23
2019-04-14T00:22:07.317Z,51.93
2019-04-14T00:24:40.258Z,49.97
2019-04-14T00:27:12.815Z,48.10
2019-04-14T00:29:45.768Z,41.73
2019-04-14T00:32:18.331Z,42.73
2019-04-14T00:35:16.665Z,45.47
2019-04-14T00:38:13.692Z,39.70
2019-04-14T00:40:52.507Z,39.33
2019-04-14T00:43:46.100Z,39.47
2019-04-14T00:46:27.882Z,38.43
2019-04-14T00:49:00.591Z,40.53
2019-04-14T00:51:33.131Z,41.80
2019-04-14T00:54:06.526Z,40.13
2019-04-14T00:56:39.024Z,41.33
2019-04-14T00:59:11.464Z,37.10
2019-04-14T01:01:43.770Z,39.07
2019-04-14T01:04:16.540Z,38.23
2019-04-14T01:06:49.044Z,38.77
2019-04-14T01:09:21.650Z,38.80
2019-04-14T01:11:53.768Z,38.30
2019-04-14T01:14:25.827Z,37.83
2019-04-14T01:16:58.043Z,36.53
2019-04-14T01:19:30.939Z,36.20
2019-04-14T01:22:03.218Z,39.30
2019-04-14T01:24:35.974Z,37.17
2019-04-14T01:27:08.214Z,38.30
2019-04-14T01:29:40.525Z,36.93
2019-04-14T01:32:13.293Z,39.07
2019-04-14T01:34:45.618Z,38.67
2019-04-14T01:37:17.973Z,37.07
2019-04-14T01:39:50.353Z,36.67
2019-04-14T01:42:22.405Z,36.27
2019-04-14T01:44:54.751Z,36.80
2019-04-14T01:47:27.071Z,36.07
2019-04-14T01:49:59.477Z,35.77
2019-04-14T01:52:59.180Z,34.80
2019-04-14T01:55:46.258Z,35.23
2019-04-14T01:58:25.064Z,35.87
2019-04-14T02:01:14.963Z,35.97
2019-04-14T02:03:47.793Z,34.47
2019-04-14T02:06:20.468Z,35.27
2019-04-14T02:08:54.720Z,34.30
2019-04-14T02:11:27.065Z,30.60
2019-04-14T02:13:59.400Z,37.60
2019-04-14T02:16:39.763Z,36.93
2019-04-14T02:19:06.620Z,36.97
2019-04-14T02:21:38.960Z,33.40
2019-04-14T02:24:11.415Z,31.63
2019-04-14T02:26:43.913Z,35.47
2019-04-14T02:29:16.841Z,34.90
2019-04-14T02:32:17.380Z,35.73
2019-04-14T02:34:49.784Z,32.27
2019-04-14T02:37:26.708Z,34.60
2019-04-14T02:40:01.003Z,32.67
2019-04-14T02:53:05.216Z,33.67
2019-04-14T02:55:15.319Z,33.60
2019-04-14T02:57:52.658Z,31.83
2019-04-14T03:00:35.666Z,35.73
2019-04-14T03:02:59.554Z,30.53
2019-04-14T03:05:37.686Z,33.37
2019-04-14T03:08:06.486Z,30.80
2019-04-14T03:10:40.283Z,32.60
2019-04-14T03:16:13.741Z,32.13
2019-04-14T03:21:43.832Z,32.00
2019-04-14T03:24:31.721Z,33.90
2019-04-14T03:27:15.196Z,30.77
2019-04-14T03:29:59.949Z,32.23
2019-04-14T03:33:14.165Z,31.00
2019-04-14T03:35:20.017Z,31.30
2019-04-14T03:37:48.492Z,32.00
2019-04-14T03:40:08.820Z,33.17
2019-04-14T03:42:45.969Z,32.87
2019-04-14T03:45:28.346Z,32.47
2019-04-14T03:48:15.193Z,32.23
2019-04-14T03:53:08.165Z,34.67
2019-04-14T03:55:25.493Z,31.80
2019-04-14T03:57:45.462Z,32.97
2019-04-14T04:00:18.069Z,33.73
2019-04-14T04:02:51.176Z,31.37
2019-04-14T04:05:23.806Z,30.00
2019-04-14T04:07:56.065Z,31.57
2019-04-14T04:10:29.208Z,31.37
2019-04-14T04:13:01.960Z,28.97
2019-04-14T04:15:34.403Z,28.77
2019-04-14T04:18:20.280Z,28.47
2019-04-14T04:21:13.988Z,27.10
2019-04-14T04:23:56.083Z,27.13
2019-04-14T04:26:38.676Z,26.73
2019-04-14T04:29:15.780Z,27.27
2019-04-14T04:32:05.587Z,25.17
2019-04-14T04:34:59.915Z,26.27
2019-04-14T04:38:03.049Z,26.83
2019-04-14T04:40:35.384Z,26.47
2019-04-14T04:43:07.972Z,26.57
2019-04-14T04:45:40.887Z,26.33
2019-04-14T04:48:13.213Z,27.87
2019-04-14T04:50:45.398Z,27.70
2019-04-14T04:53:18.097Z,28.90
2019-04-14T04:55:50.761Z,27.70
2019-04-14T04:58:22.733Z,28.07
2019-04-14T05:00:57.352Z,27.93
2019-04-14T05:03:29.752Z,27.43
2019-04-14T05:07:09.716Z,28.23
2019-04-14T05:10:06.755Z,25.83
2019-04-14T05:12:48.143Z,26.93
2019-04-14T05:15:31.537Z,25.53
2019-04-14T05:18:04.596Z,25.73
2019-04-14T05:20:37.778Z,28.70
2019-04-14T05:23:10.256Z,29.53
2019-04-14T05:25:43.027Z,24.70
2019-04-14T05:28:15.582Z,25.70
2019-04-14T05:30:48.329Z,22.73
2019-04-14T05:33:20.710Z,24.07
2019-04-14T05:35:53.216Z,25.27
2019-04-14T05:38:26.161Z,24.70
2019-04-14T05:41:00.328Z,24.60
2019-04-14T05:43:40.613Z,24.60
2019-04-14T05:46:06.236Z,25.13
2019-04-14T05:48:38.261Z,24.23
2019-04-14T05:51:10.983Z,22.70
2019-04-14T05:53:43.832Z,22.53
2019-04-14T05:56:16.443Z,23.07
2019-04-14T05:58:49.326Z,22.37
2019-04-14T06:01:22.361Z,22.50
2019-04-14T06:03:54.562Z,22.97
2019-04-14T06:06:26.716Z,23.70
2019-04-14T06:08:58.935Z,24.60
2019-04-14T06:11:31.218Z,26.03
2019-04-14T06:14:03.250Z,22.97
2019-04-14T06:16:35.256Z,26.80
2019-04-14T06:19:08.654Z,25.07
2019-04-14T06:21:42.742Z,24.03
2019-04-14T06:24:14.802Z,23.03
2019-04-14T06:26:46.927Z,23.97
2019-04-14T06:29:18.907Z,26.33
2019-04-14T06:32:19.981Z,22.63
2019-04-14T06:35:09.396Z,22.37
2019-04-14T06:37:53.878Z,22.07
2019-04-14T06:40:26.990Z,23.03
2019-04-14T06:42:58.957Z,23.40
2019-04-14T06:45:30.908Z,23.60
2019-04-14T06:48:02.924Z,22.67
2019-04-14T06:50:35.018Z,20.37
2019-04-14T06:53:07.152Z,22.77
2019-04-14T06:55:39.141Z,21.03
2019-04-14T06:58:11.300Z,22.00
2019-04-14T07:00:43.273Z,21.03
2019-04-14T07:03:15.255Z,22.13
2019-04-14T07:05:47.239Z,21.63
2019-04-14T07:08:19.182Z,20.07
2019-04-14T07:10:51.277Z,21.23
2019-04-14T07:13:23.256Z,22.93
2019-04-14T07:15:56.734Z,21.43
2019-04-14T07:18:28.759Z,22.93
2019-04-14T07:21:01.017Z,23.13
2019-04-14T07:23:33.009Z,21.40
2019-04-14T07:26:05.175Z,22.57
2019-04-14T07:28:37.165Z,23.10
2019-04-14T07:31:23.767Z,20.97
2019-04-14T07:34:04.170Z,20.13
2019-04-14T07:36:54.997Z,20.80
2019-04-14T07:39:45.892Z,20.80
2019-04-14T07:42:30.224Z,22.40
2019-04-14T07:45:39.175Z,23.03
2019-04-14T07:48:15.976Z,23.70
2019-04-14T07:50:56.558Z,20.83
2019-04-14T07:53:56.592Z,20.23
2019-04-14T07:56:50.437Z,20.97
2019-04-14T07:59:41.266Z,20.13
2019-04-14T08:02:22.527Z,19.97
2019-04-14T08:05:00.775Z,22.03
2019-04-14T08:07:32.736Z,24.23
2019-04-14T08:10:04.816Z,20.47
2019-04-14T08:12:38.337Z,20.07
2019-04-14T08:15:10.587Z,21.37
2019-04-14T08:17:43.709Z,20.37
2019-04-14T08:20:26.931Z,21.30
2019-04-14T08:22:50.689Z,22.83
2019-04-14T08:25:22.743Z,24.20
2019-04-14T08:27:54.842Z,20.53
2019-04-14T08:30:27.926Z,20.90
2019-04-14T08:33:00.438Z,26.07
2019-04-14T08:35:32.392Z,24.10
2019-04-14T08:38:04.609Z,19.67
2019-04-14T08:40:36.576Z,20.50
2019-04-14T08:43:26.094Z,19.73
2019-04-14T08:46:13.535Z,22.90
2019-04-14T08:48:52.252Z,20.53
2019-04-14T08:51:28.647Z,19.73
2019-04-14T08:54:06.807Z,19.97
2019-04-14T08:57:00.759Z,20.03
2019-04-14T08:59:50.325Z,19.07
2019-04-14T09:02:47.472Z,19.20
2019-04-14T09:05:41.668Z,17.92
2019-04-14T09:08:32.508Z,18.52
2019-04-14T09:11:05.933Z,16.77
2019-04-14T09:13:37.999Z,33.40
2019-04-14T09:16:10.408Z,19.12
2019-04-14T09:18:42.405Z,16.60
2019-04-14T09:21:14.423Z,16.45
2019-04-14T09:23:46.422Z,17.65
2019-04-14T09:26:18.463Z,17.45
2019-04-14T09:28:50.803Z,16.35
2019-04-14T09:31:22.833Z,18.37
2019-04-14T09:33:54.878Z,16.70
2019-04-14T09:36:26.908Z,18.10
2019-04-14T09:38:58.909Z,23.85
2019-04-14T09:41:30.965Z,20.60
2019-04-14T09:44:02.943Z,17.17
2019-04-14T09:46:35.132Z,18.05
2019-04-14T09:49:07.338Z,17.67
2019-04-14T09:51:40.025Z,18.27
2019-04-14T09:54:12.015Z,18.45
2019-04-14T09:56:44.012Z,16.52
2019-04-14T09:59:15.981Z,16.95
2019-04-14T10:01:48.073Z,18.15
2019-04-14T10:04:20.412Z,15.08
2019-04-14T10:06:52.368Z,16.35
2019-04-14T10:09:24.457Z,16.55
2019-04-14T10:11:59.393Z,15.45
2019-04-14T10:14:31.397Z,15.70
2019-04-14T10:17:03.418Z,16.40
2019-04-14T10:19:35.409Z,15.72
2019-04-14T10:22:07.455Z,17.15
2019-04-14T10:24:39.530Z,15.83
2019-04-14T10:27:11.665Z,18.48
2019-04-14T10:29:44.905Z,15.78
2019-04-14T10:32:16.877Z,14.03
2019-04-14T10:34:48.833Z,15.25
2019-04-14T10:37:21.265Z,19.17
2019-04-14T10:39:53.288Z,15.48
2019-04-14T10:42:25.321Z,15.90
2019-04-14T10:44:57.293Z,18.60
2019-04-14T10:47:29.415Z,14.95
2019-04-14T10:50:01.519Z,15.30
2019-04-14T10:52:33.529Z,14.60
2019-04-14T10:55:05.967Z,17.57
2019-04-14T10:57:38.005Z,14.28
2019-04-14T11:00:14.387Z,13.80
2019-04-14T11:02:46.870Z,11.97
2019-04-14T11:05:18.833Z,13.65
2019-04-14T11:07:51.277Z,12.23
2019-04-14T11:10:23.435Z,12.10
2019-04-14T11:12:55.430Z,13.55
2019-04-14T11:15:27.474Z,14.53
2019-04-14T11:17:59.514Z,15.13
2019-04-14T11:20:31.492Z,23.30
2019-04-14T11:23:03.868Z,15.37
2019-04-14T11:25:36.591Z,13.40
2019-04-14T11:28:08.590Z,13.47
2019-04-14T11:30:40.825Z,14.57
2019-04-14T11:33:21.629Z,14.57
2019-04-14T11:36:12.540Z,14.33
2019-04-14T11:38:49.677Z,14.07
2019-04-14T11:41:23.490Z,15.43
2019-04-14T11:43:55.466Z,14.27
2019-04-14T11:46:27.599Z,15.77
2019-04-14T11:49:00.133Z,13.93
2019-04-14T11:51:32.292Z,14.53
2019-04-14T11:54:04.628Z,14.50
2019-04-14T11:56:36.743Z,18.63
2019-04-14T11:59:08.863Z,21.60
2019-04-14T12:01:59.201Z,22.23
2019-04-14T12:04:34.955Z,22.17
2019-04-14T12:07:16.201Z,16.57
2019-04-14T12:09:57.021Z,15.93
2019-04-14T12:12:29.095Z,20.47
2019-04-14T12:15:01.246Z,21.10
2019-04-14T12:17:33.255Z,16.07
2019-04-14T12:20:06.888Z,15.93
2019-04-14T12:22:38.918Z,15.93
2019-04-14T12:25:11.853Z,14.33
2019-04-14T12:27:44.356Z,19.00
2019-04-14T12:30:17.934Z,17.70
2019-04-14T12:32:50.366Z,13.57
2019-04-14T12:35:22.418Z,12.80
2019-04-14T12:37:54.492Z,13.20
2019-04-14T12:40:26.733Z,13.53
2019-04-14T12:43:22.415Z,13.10
2019-04-14T12:46:28.445Z,12.20
2019-04-14T12:49:08.432Z,13.40
2019-04-14T12:51:47.853Z,12.93
2019-04-14T12:54:19.953Z,13.50
2019-04-14T12:56:52.942Z,13.97
2019-04-14T12:59:25.092Z,12.83
2019-04-14T13:02:18.731Z,11.90
2019-04-14T13:04:51.131Z,12.90
2019-04-14T13:07:23.065Z,13.27
2019-04-14T13:09:55.097Z,13.57
2019-04-14T13:12:27.135Z,12.77
2019-04-14T13:14:59.216Z,13.53
2019-04-14T13:17:31.272Z,12.80
2019-04-14T13:20:03.301Z,12.23
2019-04-14T13:22:35.426Z,12.10
2019-04-14T13:25:08.290Z,12.30
2019-04-14T13:27:40.640Z,11.97
2019-04-14T13:30:14.811Z,12.97
2019-04-14T13:32:46.869Z,12.50
2019-04-14T13:35:18.942Z,14.60
2019-04-14T13:37:51.340Z,13.27
2019-04-14T13:40:23.388Z,13.60
2019-04-14T13:42:55.391Z,13.43
2019-04-14T13:45:27.405Z,14.67
2019-04-14T13:47:59.512Z,14.43
2019-04-14T13:50:31.770Z,12.83
2019-04-14T13:53:03.898Z,16.07
2019-04-14T13:55:35.886Z,14.80
2019-04-14T13:58:07.879Z,13.80
2019-04-14T14:00:39.851Z,14.40
2019-04-14T14:03:11.913Z,12.77
2019-04-14T14:05:44.021Z,12.93
2019-04-14T14:08:16.031Z,12.33
2019-04-14T14:10:48.008Z,13.97
2019-04-14T14:13:48.086Z,13.73
2019-04-14T14:16:40.022Z,13.50
2019-04-14T14:19:31.522Z,15.57
2019-04-14T14:22:13.395Z,14.37
2019-04-14T14:25:01.559Z,14.10
2019-04-14T14:27:33.732Z,15.00
2019-04-14T14:30:06.293Z,14.53
2019-04-14T14:32:42.874Z,13.37
2019-04-14T14:35:14.940Z,15.27
2019-04-14T14:37:46.969Z,13.97
2019-04-14T14:40:20.813Z,14.47
2019-04-14T14:42:52.998Z,14.60
2019-04-14T14:45:49.787Z,12.53
2019-04-14T14:48:25.365Z,13.00
2019-04-14T14:51:17.940Z,13.07
2019-04-14T14:53:50.045Z,13.03
2019-04-14T14:56:22.161Z,15.60
2019-04-14T14:58:54.141Z,12.70
2019-04-14T15:01:26.245Z,14.83
2019-04-14T15:03:58.406Z,15.07
2019-04-14T15:06:30.496Z,12.50
2019-04-14T15:09:05.132Z,13.93
2019-04-14T15:11:37.281Z,13.80
2019-04-14T15:14:09.276Z,14.90
2019-04-14T15:16:41.416Z,13.73
2019-04-14T15:19:13.568Z,12.77
2019-04-14T15:21:45.701Z,14.07
2019-04-14T15:24:17.714Z,14.23
2019-04-14T15:26:52.140Z,13.27
2019-04-14T15:29:25.949Z,12.80
2019-04-14T15:31:58.144Z,14.07
2019-04-14T15:34:30.460Z,15.77
2019-04-14T15:37:02.534Z,14.13
2019-04-14T15:39:37.408Z,14.80
2019-04-14T15:42:08.212Z,14.17
2019-04-14T15:44:40.700Z,17.93
2019-04-14T15:47:14.236Z,17.13
2019-04-14T15:49:46.403Z,20.30
2019-04-14T15:52:18.577Z,14.50
2019-04-14T15:54:51.014Z,15.10
2019-04-14T15:57:44.761Z,12.97
2019-04-14T16:00:40.198Z,13.40
2019-04-14T16:03:23.465Z,12.90
2019-04-14T16:06:12.864Z,12.43
2019-04-14T16:08:51.877Z,12.50
2019-04-14T16:11:54.863Z,14.20
2019-04-14T16:14:57.760Z,11.87
2019-04-14T16:17:50.283Z,13.13
2019-04-14T16:20:26.147Z,13.27
2019-04-14T16:22:58.148Z,12.90
2019-04-14T16:25:54.339Z,12.20
2019-04-14T16:28:48.229Z,12.20
2019-04-14T16:31:44.307Z,15.17
2019-04-14T16:34:29.479Z,15.87
2019-04-14T16:37:01.425Z,14.63
2019-04-14T16:39:33.537Z,15.13
2019-04-14T16:42:05.567Z,14.37
2019-04-14T16:44:37.575Z,10.97
2019-04-14T16:47:09.572Z,11.60
2019-04-14T16:49:41.549Z,17.43
2019-04-14T16:52:42.680Z,14.87
2019-04-14T16:55:23.790Z,15.57
2019-04-14T16:58:13.315Z,26.57
2019-04-14T17:00:48.813Z,26.20
2019-04-14T17:03:21.188Z,13.33
2019-04-14T17:05:53.324Z,16.33
2019-04-14T17:08:25.321Z,14.73
2019-04-14T17:10:57.312Z,17.87
2019-04-14T17:13:31.667Z,17.93
2019-04-14T17:16:28.365Z,15.03
2019-04-14T17:19:07.389Z,15.20
2019-04-14T17:21:50.325Z,13.20
2019-04-14T17:24:35.302Z,13.20
2019-04-14T17:27:23.743Z,14.23
2019-04-14T17:30:27.074Z,17.20
2019-04-14T17:33:33.203Z,12.90
2019-04-14T17:36:12.241Z,13.40
2019-04-14T17:39:08.962Z,15.17
2019-04-14T17:42:09.161Z,16.63
2019-04-14T17:45:12.418Z,13.37
2019-04-14T17:47:50.520Z,14.57
2019-04-14T17:50:40.837Z,11.63
2019-04-14T17:53:34.487Z,13.77
2019-04-14T17:56:13.448Z,16.27
2019-04-14T17:59:01.685Z,14.83
2019-04-14T18:01:52.997Z,14.90
2019-04-14T18:04:32.825Z,14.23
2019-04-14T18:07:13.795Z,14.47
2019-04-14T18:10:04.745Z,13.50
2019-04-14T18:12:45.453Z,16.53
2019-04-14T18:15:39.634Z,16.10
2019-04-14T18:18:33.616Z,15.33
2019-04-14T18:21:07.906Z,16.43
2019-04-14T18:23:40.279Z,17.23
2019-04-14T18:26:14.201Z,15.37
2019-04-14T18:29:20.564Z,16.90
2019-04-14T18:32:13.028Z,14.57
2019-04-14T18:34:58.716Z,13.13
2019-04-14T18:37:53.213Z,15.40
2019-04-14T18:40:36.227Z,15.73
2019-04-14T18:43:33.058Z,17.47
2019-04-14T18:46:20.123Z,16.40
2019-04-14T18:49:14.395Z,15.90
2019-04-14T18:52:11.302Z,17.90
2019-04-14T18:54:58.620Z,18.10
2019-04-14T18:57:43.618Z,20.83
2019-04-14T19:00:23.781Z,23.60
2019-04-14T19:02:55.894Z,23.03
2019-04-14T19:05:28.505Z,22.97
2019-04-14T19:08:00.950Z,19.60
2019-04-14T19:10:33.389Z,22.20
2019-04-14T19:13:18.607Z,21.17
2019-04-14T19:16:04.782Z,18.03
2019-04-14T19:18:42.999Z,16.43
2019-04-14T19:21:17.280Z,18.80
2019-04-14T19:23:49.329Z,18.27
2019-04-14T19:26:21.397Z,19.10
2019-04-14T19:28:53.497Z,18.53
2019-04-14T19:31:25.488Z,18.53
2019-04-14T19:33:57.492Z,18.57
2019-04-14T19:36:29.614Z,19.93
2019-04-14T19:39:01.563Z,19.50
2019-04-14T19:41:33.551Z,20.57
2019-04-14T19:44:05.626Z,23.67
2019-04-14T19:46:37.627Z,23.13
2019-04-14T19:49:10.221Z,23.40
2019-04-14T19:51:43.296Z,21.93
2019-04-14T19:54:15.635Z,24.53
2019-04-14T19:56:47.712Z,24.73
2019-04-14T19:59:20.702Z,20.17
2019-04-14T20:01:52.673Z,19.30
2019-04-14T20:04:25.004Z,22.80
2019-04-14T20:06:58.880Z,21.07
2019-04-14T20:09:31.298Z,20.73
2019-04-14T20:12:03.376Z,19.97
2019-04-14T20:14:35.437Z,19.53
2019-04-14T20:17:25.376Z,25.70
2019-04-14T20:20:09.978Z,21.37
2019-04-14T20:23:09.879Z,22.30
2019-04-14T20:26:01.050Z,21.97
2019-04-14T20:28:46.868Z,21.70
2019-04-14T20:31:33.059Z,22.17
2019-04-14T20:34:05.264Z,20.17
2019-04-14T20:36:37.517Z,20.47
2019-04-14T20:39:15.126Z,19.73
2019-04-14T20:41:47.243Z,21.57
2019-04-14T20:44:19.400Z,23.33
2019-04-14T20:46:51.484Z,19.37
2019-04-14T20:49:23.569Z,21.57
2019-04-14T20:51:55.548Z,19.80
2019-04-14T20:54:27.643Z,17.97
2019-04-14T20:57:00.476Z,17.47
2019-04-14T20:59:32.439Z,20.13
2019-04-14T21:02:22.628Z,20.80
2019-04-14T21:05:10.436Z,20.27
2019-04-14T21:07:59.944Z,19.53
2019-04-14T21:10:37.579Z,19.47
2019-04-14T21:13:16.635Z,19.37
2019-04-14T21:15:57.191Z,18.73
2019-04-14T21:18:34.652Z,20.40
2019-04-14T21:21:18.521Z,20.83
2019-04-14T21:24:01.698Z,20.10
2019-04-14T21:26:45.242Z,20.13
2019-04-14T21:29:35.028Z,17.50
2019-04-14T21:32:12.737Z,15.97
2019-04-14T21:35:02.580Z,15.23
2019-04-14T21:37:59.259Z,15.60
2019-04-14T21:40:52.558Z,16.83
2019-04-14T21:43:24.561Z,18.70
2019-04-14T21:45:56.539Z,17.13
2019-04-14T21:48:28.562Z,18.20
2019-04-14T21:51:01.035Z,18.60
2019-04-14T21:53:33.182Z,18.83
2019-04-14T21:56:13.230Z,20.03
2019-04-14T21:58:48.224Z,18.47
2019-04-14T22:01:57.191Z,18.53
2019-04-14T22:04:47.987Z,19.57
2019-04-14T22:07:38.975Z,18.90
2019-04-14T22:10:42.788Z,19.67
2019-04-14T22:13:16.352Z,21.17
2019-04-14T22:15:48.293Z,19.77
2019-04-14T22:18:20.257Z,22.63
2019-04-14T22:20:52.507Z,22.90
2019-04-14T22:23:24.774Z,21.43
2019-04-14T22:25:56.880Z,20.13
2019-04-14T22:28:29.939Z,21.50
2019-04-14T22:31:02.217Z,20.90
2019-04-14T22:33:35.278Z,19.27
2019-04-14T22:36:07.401Z,22.17
2019-04-14T22:38:39.471Z,20.93
2019-04-14T22:41:11.420Z,20.00
2019-04-14T22:43:43.505Z,22.47
2019-04-14T22:46:15.621Z,19.10
2019-04-14T22:48:47.773Z,22.30
2019-04-14T22:51:19.719Z,21.30
2019-04-14T22:53:51.706Z,23.43
2019-04-14T22:56:23.768Z,23.67
2019-04-14T22:58:55.793Z,22.13
2019-04-14T23:01:30.629Z,24.00
2019-04-14T23:05:22.727Z,23.07
2019-04-14T23:08:13.632Z,22.53
2019-04-14T23:11:10.649Z,22.03
2019-04-14T23:13:48.746Z,21.87
2019-04-14T23:16:51.676Z,20.27
2019-04-14T23:19:30.489Z,19.47
2019-04-14T23:22:24.478Z,21.30
2019-04-14T23:24:56.552Z,19.30
2019-04-14T23:27:28.606Z,19.47
2019-04-14T23:30:00.843Z,20.13
2019-04-14T23:32:32.870Z,19.40
2019-04-14T23:35:05.368Z,20.00
2019-04-14T23:37:37.412Z,19.87
2019-04-14T23:40:09.585Z,20.63
2019-04-14T23:42:41.551Z,20.33
2019-04-14T23:45:13.604Z,20.20
2019-04-14T23:47:45.587Z,19.10
2019-04-14T23:50:17.533Z,19.23
2019-04-14T23:52:49.973Z,19.40
2019-04-14T23:55:21.992Z,18.77
2019-04-14T23:57:53.973Z,20.20
